createdAt,value
2022-08-09T00:00:44.462Z,24.60
2022-08-09T00:01:43.210Z,24.59
2022-08-09T00:02:49.674Z,24.59
2022-08-09T00:04:10.236Z,24.55
2022-08-09T00:04:41.056Z,24.59
2022-08-09T00:06:19.117Z,24.59
2022-08-09T00:06:41.073Z,24.60
2022-08-09T00:07:44.772Z,24.60
2022-08-09T00:08:41.113Z,24.61
2022-08-09T00:09:41.134Z,24.61
2022-08-09T00:10:41.131Z,24.61
2022-08-09T00:12:01.542Z,24.59
2022-08-09T00:12:41.180Z,24.60
2022-08-09T00:13:41.200Z,24.55
2022-08-09T00:14:41.232Z,24.51
2022-08-09T00:15:59.389Z,24.48
2022-08-09T00:16:41.293Z,24.45
2022-08-09T00:18:05.425Z,24.42
2022-08-09T00:18:41.319Z,24.41
2022-08-09T00:19:41.338Z,24.41
2022-08-09T00:20:48.265Z,24.37
2022-08-09T00:21:43.214Z,24.36
2022-08-09T00:22:41.400Z,24.42
2022-08-09T00:23:56.599Z,24.37
2022-08-09T00:24:41.449Z,24.37
2022-08-09T00:25:41.511Z,24.34
2022-08-09T00:26:41.454Z,24.34
2022-08-09T00:27:43.137Z,24.37
2022-08-09T00:28:41.502Z,24.42
2022-08-09T00:30:24.602Z,24.44
2022-08-09T00:30:41.520Z,24.45
2022-08-09T00:31:59.319Z,24.45
2022-08-09T00:32:41.869Z,24.46
2022-08-09T00:33:50.988Z,24.44
2022-08-09T00:34:46.412Z,24.39
2022-08-09T00:35:43.520Z,24.39
2022-08-09T00:36:41.844Z,24.42
2022-08-09T00:37:41.560Z,24.41
2022-08-09T00:38:41.589Z,24.37
2022-08-09T00:40:12.362Z,24.39
2022-08-09T00:40:52.527Z,24.34
2022-08-09T00:44:10.889Z,24.36
2022-08-09T00:44:11.526Z,24.33
2022-08-09T00:44:19.392Z,24.37
2022-08-09T00:44:41.719Z,24.31
2022-08-09T00:45:50.554Z,24.33
2022-08-09T00:46:56.453Z,24.33
2022-08-09T00:47:41.793Z,24.30
2022-08-09T00:48:41.803Z,24.29
2022-08-09T00:49:41.824Z,24.24
2022-08-09T00:50:41.839Z,24.27
2022-08-09T00:51:42.649Z,24.27
2022-08-09T00:52:41.894Z,24.24
2022-08-09T00:53:41.863Z,24.21
2022-08-09T00:54:41.868Z,24.23
2022-08-09T00:56:03.886Z,24.21
2022-08-09T00:56:41.910Z,24.21
2022-08-09T00:57:42.144Z,24.16
2022-08-09T00:58:41.961Z,24.16
2022-08-09T00:59:46.392Z,24.12
2022-08-09T01:00:41.988Z,24.16
2022-08-09T01:01:44.657Z,24.15
2022-08-09T01:02:42.055Z,24.15
2022-08-09T01:03:46.346Z,24.12
2022-08-09T01:04:42.052Z,24.11
2022-08-09T01:05:53.241Z,24.11
2022-08-09T01:06:54.747Z,24.11
2022-08-09T01:08:00.209Z,24.09
2022-08-09T01:08:49.379Z,24.05
2022-08-09T01:09:42.149Z,24.11
2022-08-09T01:10:42.161Z,24.11
2022-08-09T01:11:42.161Z,24.04
2022-08-09T01:12:42.192Z,24.02
2022-08-09T01:13:59.548Z,23.97
2022-08-09T01:14:42.227Z,24.04
2022-08-09T01:15:52.648Z,24.02
2022-08-09T01:16:47.220Z,23.97
2022-08-09T01:17:42.313Z,23.97
2022-08-09T01:18:42.298Z,24.00
2022-08-09T01:19:42.742Z,23.97
2022-08-09T01:20:42.343Z,24.00
2022-08-09T01:21:45.079Z,23.96
2022-08-09T01:22:42.389Z,23.96
2022-08-09T01:24:01.930Z,23.94
2022-08-09T01:24:43.983Z,23.92
2022-08-09T01:25:42.482Z,23.93
2022-08-09T01:26:42.481Z,23.89
2022-08-09T01:27:42.493Z,23.94
2022-08-09T01:28:42.510Z,23.89
2022-08-09T01:29:56.003Z,23.90
2022-08-09T01:30:52.390Z,23.93
2022-08-09T01:32:30.802Z,23.90
2022-08-09T01:32:45.480Z,23.87
2022-08-09T01:33:42.577Z,23.81
2022-08-09T01:34:42.609Z,23.87
2022-08-09T01:35:42.599Z,23.82
2022-08-09T01:36:42.597Z,23.81
2022-08-09T01:38:00.711Z,23.75
2022-08-09T01:38:46.431Z,23.77
2022-08-09T01:39:42.711Z,23.78
2022-08-09T01:40:42.677Z,23.75
2022-08-09T01:41:59.865Z,23.68
2022-08-09T01:42:42.702Z,23.67
2022-08-09T01:43:51.660Z,23.68
2022-08-09T01:44:42.731Z,23.67
2022-08-09T01:45:44.725Z,23.63
2022-08-09T01:46:42.763Z,23.62
2022-08-09T01:47:44.465Z,23.62
2022-08-09T01:48:42.825Z,23.60
2022-08-09T01:49:42.859Z,23.62
2022-08-09T01:50:42.876Z,23.67
2022-08-09T01:51:44.573Z,23.63
2022-08-09T01:52:43.391Z,23.60
2022-08-09T01:53:42.914Z,23.57
2022-08-09T01:54:42.927Z,23.56
2022-08-09T01:55:42.937Z,23.57
2022-08-09T01:56:42.957Z,23.59
2022-08-09T01:57:46.070Z,23.54
2022-08-09T01:58:42.969Z,23.57
2022-08-09T01:59:51.211Z,23.54
2022-08-09T02:00:43.025Z,23.56
2022-08-09T02:01:59.122Z,23.56
2022-08-09T02:02:43.041Z,23.53
2022-08-09T02:03:43.057Z,23.52
2022-08-09T02:04:45.509Z,23.52
2022-08-09T02:06:03.617Z,23.53
2022-08-09T02:06:45.449Z,23.56
2022-08-09T02:08:39.147Z,23.54
2022-08-09T02:08:57.717Z,23.50
2022-08-09T02:09:43.182Z,23.52
2022-08-09T02:10:43.206Z,23.47
2022-08-09T02:11:43.883Z,23.44
2022-08-09T02:12:43.221Z,23.47
2022-08-09T02:13:43.251Z,23.45
2022-08-09T02:14:43.268Z,23.44
2022-08-09T02:15:50.103Z,23.45
2022-08-09T02:16:59.165Z,23.47
2022-08-09T02:18:01.004Z,23.49
2022-08-09T02:18:47.685Z,23.47
2022-08-09T02:19:43.764Z,23.44
2022-08-09T02:20:43.358Z,23.42
2022-08-09T02:21:43.351Z,23.42
2022-08-09T02:22:46.428Z,23.44
2022-08-09T02:23:43.477Z,23.42
2022-08-09T02:24:43.340Z,23.42
2022-08-09T02:25:51.281Z,23.39
2022-08-09T02:26:43.394Z,23.44
2022-08-09T02:28:00.424Z,23.41
2022-08-09T02:28:43.449Z,23.38
2022-08-09T02:29:43.439Z,23.41
2022-08-09T02:30:43.471Z,23.37
2022-08-09T02:31:43.496Z,23.32
2022-08-09T02:32:43.500Z,23.34
2022-08-09T02:34:07.161Z,23.32
2022-08-09T02:34:51.622Z,23.34
2022-08-09T02:36:03.407Z,23.31
2022-08-09T02:36:43.578Z,23.32
2022-08-09T02:37:45.385Z,23.34
2022-08-09T02:38:47.684Z,23.29
2022-08-09T02:39:44.613Z,23.29
2022-08-09T02:40:43.651Z,23.29
2022-08-09T02:41:43.604Z,23.31
2022-08-09T02:42:43.615Z,23.26
2022-08-09T02:43:54.889Z,23.26
2022-08-09T02:44:43.635Z,23.23
2022-08-09T02:45:43.648Z,23.21
2022-08-09T02:46:43.677Z,23.23
2022-08-09T02:47:57.210Z,23.26
2022-08-09T02:48:46.239Z,23.25
2022-08-09T02:49:43.691Z,23.22
2022-08-09T02:50:43.724Z,23.22
2022-08-09T02:51:43.765Z,23.25
2022-08-09T02:52:43.744Z,23.21
2022-08-09T02:53:59.669Z,23.25
2022-08-09T02:54:54.106Z,23.32
2022-08-09T02:55:57.495Z,23.26
2022-08-09T02:56:43.826Z,23.25
2022-08-09T02:58:00.598Z,23.25
2022-08-09T02:58:43.883Z,23.23
2022-08-09T03:00:11.452Z,23.18
2022-08-09T03:00:58.058Z,23.19
2022-08-09T03:02:05.619Z,23.18
2022-08-09T03:02:58.564Z,23.21
2022-08-09T03:04:17.742Z,23.25
2022-08-09T03:04:44.007Z,23.19
2022-08-09T03:05:43.993Z,23.14
2022-08-09T03:06:44.029Z,23.11
2022-08-09T03:07:44.020Z,23.16
2022-08-09T03:08:44.059Z,23.16
2022-08-09T03:09:56.309Z,23.16
2022-08-09T03:10:44.057Z,23.18
2022-08-09T03:12:05.921Z,23.14
2022-08-09T03:12:44.116Z,23.16
2022-08-09T03:13:59.234Z,23.12
2022-08-09T03:14:44.128Z,23.11
2022-08-09T03:16:06.152Z,23.11
2022-08-09T03:16:45.148Z,23.09
2022-08-09T03:17:44.186Z,23.04
2022-08-09T03:18:44.198Z,23.00
2022-08-09T03:19:52.198Z,23.00
2022-08-09T03:20:44.267Z,23.00
2022-08-09T03:21:44.272Z,23.03
2022-08-09T03:22:44.645Z,22.97
2022-08-09T03:23:44.298Z,22.96
2022-08-09T03:24:52.100Z,22.97
2022-08-09T03:25:59.157Z,22.96
2022-08-09T03:26:45.219Z,22.94
2022-08-09T03:27:45.580Z,22.89
2022-08-09T03:28:44.347Z,22.93
2022-08-09T03:29:57.760Z,22.89
2022-08-09T03:30:44.407Z,22.86
2022-08-09T03:32:00.527Z,22.82
2022-08-09T03:32:45.707Z,22.82
2022-08-09T03:33:53.990Z,22.81
2022-08-09T03:34:44.477Z,22.81
2022-08-09T03:36:13.415Z,22.81
2022-08-09T03:36:48.042Z,22.75
2022-08-09T03:37:56.971Z,22.75
2022-08-09T03:38:44.868Z,22.74
2022-08-09T03:39:48.629Z,22.70
2022-08-09T03:40:44.572Z,22.72
2022-08-09T03:41:45.951Z,22.72
2022-08-09T03:42:44.579Z,22.67
2022-08-09T03:43:51.778Z,22.67
2022-08-09T03:44:44.642Z,22.64
2022-08-09T03:46:03.912Z,22.66
2022-08-09T03:46:44.636Z,22.67
2022-08-09T03:47:46.839Z,22.64
2022-08-09T03:48:51.719Z,22.63
2022-08-09T03:49:58.640Z,22.66
2022-08-09T03:50:44.679Z,22.69
2022-08-09T03:51:58.685Z,22.64
2022-08-09T03:52:44.680Z,22.61
2022-08-09T03:53:44.670Z,22.61
2022-08-09T03:54:44.679Z,22.63
2022-08-09T03:55:44.688Z,22.64
2022-08-09T03:56:44.733Z,22.64
2022-08-09T03:58:03.406Z,22.64
2022-08-09T03:58:44.747Z,22.60
2022-08-09T03:59:53.405Z,22.64
2022-08-09T04:00:44.862Z,22.66
2022-08-09T04:01:44.782Z,22.63
2022-08-09T04:02:45.006Z,22.60
2022-08-09T04:03:46.390Z,22.64
2022-08-09T04:04:45.575Z,22.63
2022-08-09T04:05:45.059Z,22.63
2022-08-09T04:06:49.302Z,22.66
2022-08-09T04:07:53.153Z,22.66
2022-08-09T04:08:46.579Z,22.64
2022-08-09T04:09:50.133Z,22.63
2022-08-09T04:10:49.670Z,22.63
2022-08-09T04:11:44.948Z,22.60
2022-08-09T04:12:45.296Z,22.60
2022-08-09T04:14:37.345Z,22.61
2022-08-09T04:15:00.916Z,22.59
2022-08-09T04:16:18.697Z,22.54
2022-08-09T04:16:45.026Z,22.52
2022-08-09T04:17:45.033Z,22.54
2022-08-09T04:18:45.890Z,22.51
2022-08-09T04:19:51.611Z,22.49
2022-08-09T04:20:45.092Z,22.48
2022-08-09T04:21:45.106Z,22.46
2022-08-09T04:22:45.104Z,22.46
2022-08-09T04:23:54.413Z,22.44
2022-08-09T04:24:45.133Z,22.45
2022-08-09T04:25:51.632Z,22.39
2022-08-09T04:26:45.185Z,22.38
2022-08-09T04:27:48.810Z,22.39
2022-08-09T04:28:46.979Z,22.44
2022-08-09T04:29:49.591Z,22.42
2022-08-09T04:30:45.240Z,22.39
2022-08-09T04:31:47.118Z,22.41
2022-08-09T04:32:46.628Z,22.36
2022-08-09T04:33:52.552Z,22.35
2022-08-09T04:34:47.733Z,22.38
2022-08-09T04:35:45.253Z,22.36
2022-08-09T04:36:50.119Z,22.38
2022-08-09T04:37:46.757Z,22.39
2022-08-09T04:38:45.308Z,22.39
2022-08-09T04:39:49.450Z,22.42
2022-08-09T04:40:45.355Z,22.44
2022-08-09T04:41:45.471Z,22.42
2022-08-09T04:42:45.376Z,22.44
2022-08-09T04:43:46.617Z,22.45
2022-08-09T04:44:49.066Z,22.48
2022-08-09T04:45:53.539Z,22.49
2022-08-09T04:46:58.862Z,22.51
2022-08-09T04:48:00.308Z,22.49
2022-08-09T04:48:57.457Z,22.49
2022-08-09T04:49:54.616Z,22.54
2022-08-09T04:50:45.514Z,22.57
2022-08-09T04:51:45.536Z,22.52
2022-08-09T04:52:45.526Z,22.51
2022-08-09T04:53:45.553Z,22.54
2022-08-09T04:54:45.550Z,22.54
2022-08-09T04:55:58.077Z,22.51
2022-08-09T04:56:45.605Z,22.49
2022-08-09T04:57:54.207Z,22.51
2022-08-09T04:58:45.599Z,22.48
2022-08-09T04:59:45.618Z,22.45
2022-08-09T05:02:11.573Z,22.49
2022-08-09T05:03:40.660Z,22.46
2022-08-09T05:04:11.608Z,22.42
2022-08-09T05:05:11.586Z,22.42
2022-08-09T05:06:11.584Z,22.45
2022-08-09T05:07:18.983Z,22.42
2022-08-09T05:08:14.960Z,22.42
2022-08-09T05:09:11.600Z,22.44
2022-08-09T05:10:11.615Z,22.48
2022-08-09T05:11:11.639Z,22.46
2022-08-09T05:12:12.444Z,22.46
2022-08-09T05:13:11.650Z,22.46
2022-08-09T05:14:11.661Z,22.52
2022-08-09T05:15:38.382Z,22.56
2022-08-09T05:16:11.714Z,22.56
2022-08-09T05:17:15.257Z,22.59
2022-08-09T05:18:39.818Z,22.59
2022-08-09T05:19:11.770Z,22.63
2022-08-09T05:20:11.768Z,22.66
2022-08-09T05:21:23.061Z,22.64
2022-08-09T05:22:33.374Z,22.64
2022-08-09T05:23:54.940Z,22.67
2022-08-09T05:24:11.854Z,22.67
2022-08-09T05:25:11.889Z,22.67
2022-08-09T05:26:16.095Z,22.69
2022-08-09T05:27:11.937Z,22.70
2022-08-09T05:28:11.961Z,22.69
2022-08-09T05:29:17.508Z,22.72
2022-08-09T05:30:11.986Z,22.74
2022-08-09T05:31:11.986Z,22.78
2022-08-09T05:32:12.015Z,22.79
2022-08-09T05:33:11.991Z,22.82
2022-08-09T05:34:16.505Z,22.85
2022-08-09T05:35:12.007Z,22.86
2022-08-09T05:36:12.012Z,22.82
2022-08-09T05:37:12.026Z,22.76
2022-08-09T05:38:12.027Z,22.81
2022-08-09T05:39:12.090Z,22.79
2022-08-09T05:40:12.178Z,22.79
2022-08-09T05:41:12.655Z,22.75
2022-08-09T05:42:17.793Z,22.81
2022-08-09T05:43:12.148Z,22.85
2022-08-09T05:44:12.145Z,22.89
2022-08-09T05:45:14.717Z,22.89
2022-08-09T05:46:12.161Z,22.89
2022-08-09T05:47:12.181Z,22.94
2022-08-09T05:48:12.190Z,22.97
2022-08-09T05:49:19.083Z,23.00
2022-08-09T05:50:35.067Z,23.03
2022-08-09T05:51:30.067Z,23.04
2022-08-09T05:52:12.284Z,23.03
2022-08-09T05:53:21.777Z,23.06
2022-08-09T05:54:12.303Z,23.11
2022-08-09T05:55:20.943Z,23.15
2022-08-09T05:56:12.342Z,23.18
2022-08-09T05:57:12.710Z,23.12
2022-08-09T05:58:18.357Z,23.09
2022-08-09T05:59:12.554Z,23.06
2022-08-09T06:00:12.375Z,23.04
2022-08-09T06:01:15.780Z,23.03
2022-08-09T06:02:12.383Z,23.04
2022-08-09T06:03:12.428Z,23.07
2022-08-09T06:04:12.632Z,23.12
2022-08-09T06:05:12.439Z,23.16
2022-08-09T06:06:12.435Z,23.22
2022-08-09T06:07:21.396Z,23.26
2022-08-09T06:08:12.487Z,23.26
2022-08-09T06:09:40.871Z,23.31
2022-08-09T06:10:15.846Z,23.32
2022-08-09T06:11:17.374Z,23.35
2022-08-09T06:12:12.521Z,23.37
2022-08-09T06:13:18.762Z,23.37
2022-08-09T06:14:12.568Z,23.34
2022-08-09T06:15:12.570Z,23.35
2022-08-09T06:16:12.595Z,23.38
2022-08-09T06:17:12.591Z,23.41
2022-08-09T06:18:12.690Z,23.44
2022-08-09T06:19:12.695Z,23.44
2022-08-09T06:20:12.644Z,23.47
2022-08-09T06:21:12.675Z,23.49
2022-08-09T06:22:15.256Z,23.52
2022-08-09T06:23:15.551Z,23.50
2022-08-09T06:24:12.678Z,23.50
2022-08-09T06:25:16.212Z,23.53
2022-08-09T06:26:12.691Z,23.56
2022-08-09T06:27:12.697Z,23.57
2022-08-09T06:28:12.696Z,23.59
2022-08-09T06:29:14.978Z,23.59
2022-08-09T06:30:14.182Z,23.59
2022-08-09T06:31:12.686Z,23.59
2022-08-09T06:32:53.053Z,23.59
2022-08-09T06:33:30.514Z,23.56
2022-08-09T06:34:12.715Z,23.53
2022-08-09T06:35:12.746Z,23.49
2022-08-09T06:36:13.814Z,23.49
2022-08-09T06:37:12.800Z,23.56
2022-08-09T06:38:12.833Z,23.57
2022-08-09T06:39:13.000Z,23.57
2022-08-09T06:40:21.749Z,23.60
2022-08-09T06:41:18.941Z,23.63
2022-08-09T06:42:12.833Z,23.67
2022-08-09T06:43:12.834Z,23.71
2022-08-09T06:44:12.850Z,23.71
2022-08-09T06:46:05.557Z,23.72
2022-08-09T06:46:13.137Z,23.75
2022-08-09T06:47:12.912Z,23.75
2022-08-09T06:48:12.906Z,23.77
2022-08-09T06:49:22.588Z,23.79
2022-08-09T06:50:16.754Z,23.81
2022-08-09T06:51:12.954Z,23.82
2022-08-09T06:52:15.863Z,23.87
2022-08-09T06:53:13.006Z,23.87
2022-08-09T06:54:14.955Z,23.87
2022-08-09T06:55:13.055Z,23.89
2022-08-09T06:56:13.022Z,23.92
2022-08-09T06:57:13.336Z,23.92
2022-08-09T06:58:40.834Z,23.93
2022-08-09T07:00:49.068Z,23.96
2022-08-09T07:00:52.617Z,23.97
2022-08-09T07:01:13.178Z,23.97
2022-08-09T07:02:13.180Z,23.99
2022-08-09T07:03:13.102Z,24.02
2022-08-09T07:04:20.006Z,24.04
2022-08-09T07:05:13.152Z,24.06
2022-08-09T07:06:13.120Z,24.06
2022-08-09T07:07:58.684Z,24.08
2022-08-09T07:08:13.133Z,24.11
2022-08-09T07:09:54.874Z,24.11
2022-08-09T07:10:29.925Z,24.12
2022-08-09T07:11:23.455Z,24.11
2022-08-09T07:12:17.388Z,24.09
2022-08-09T07:13:27.567Z,24.11
2022-08-09T07:14:13.224Z,24.14
2022-08-09T07:16:36.286Z,24.18
2022-08-09T07:16:41.121Z,24.19
2022-08-09T07:17:13.274Z,24.23
2022-08-09T07:18:14.339Z,24.24
2022-08-09T07:19:15.045Z,24.23
2022-08-09T07:20:13.307Z,24.23
2022-08-09T07:21:13.310Z,24.23
2022-08-09T07:22:13.316Z,24.26
2022-08-09T07:23:19.390Z,24.29
2022-08-09T07:24:13.375Z,24.29
2022-08-09T07:25:13.396Z,24.30
2022-08-09T07:26:13.404Z,24.36
2022-08-09T07:27:33.044Z,24.37
2022-08-09T07:28:19.166Z,24.39
2022-08-09T07:29:13.655Z,24.41
2022-08-09T07:30:13.482Z,24.41
2022-08-09T07:31:13.492Z,24.42
2022-08-09T07:32:13.498Z,24.44
2022-08-09T07:33:16.696Z,24.46
2022-08-09T07:34:19.302Z,24.48
2022-08-09T07:35:14.795Z,24.49
2022-08-09T07:36:13.559Z,24.51
2022-08-09T07:37:15.725Z,24.52
2022-08-09T07:38:13.614Z,24.52
2022-08-09T07:39:20.300Z,24.53
2022-08-09T07:40:13.737Z,24.55
2022-08-09T07:41:13.847Z,24.56
2022-08-09T07:42:13.695Z,24.60
2022-08-09T07:43:14.796Z,24.60
2022-08-09T07:44:13.696Z,24.61
2022-08-09T07:45:22.723Z,24.61
2022-08-09T07:46:19.140Z,24.61
2022-08-09T07:47:16.233Z,24.63
2022-08-09T07:48:25.620Z,24.67
2022-08-09T07:49:15.334Z,24.67
2022-08-09T07:50:13.822Z,24.70
2022-08-09T07:52:03.668Z,24.70
2022-08-09T07:52:17.883Z,24.71
2022-08-09T07:53:13.875Z,24.71
2022-08-09T07:54:14.084Z,24.75
2022-08-09T07:55:13.910Z,24.75
2022-08-09T07:56:26.772Z,24.77
2022-08-09T07:57:13.925Z,24.79
2022-08-09T07:58:14.180Z,24.80
2022-08-09T07:59:16.094Z,24.82
2022-08-09T08:00:20.680Z,24.83
2022-08-09T08:01:14.130Z,24.83
2022-08-09T08:02:19.694Z,24.86
2022-08-09T08:03:14.042Z,24.87
2022-08-09T08:04:14.016Z,24.89
2022-08-09T08:05:18.873Z,24.92
2022-08-09T08:06:14.332Z,24.93
2022-08-09T08:07:57.247Z,24.94
2022-08-09T08:08:59.641Z,24.94
2022-08-09T08:09:17.784Z,24.98
2022-08-09T08:12:09.953Z,25.01
2022-08-09T08:12:40.348Z,25.02
2022-08-09T08:13:56.099Z,25.04
2022-08-09T08:14:40.136Z,25.05
2022-08-09T08:15:40.127Z,25.08
2022-08-09T08:16:40.156Z,25.09
2022-08-09T08:17:53.374Z,25.09
2022-08-09T08:18:40.208Z,25.11
2022-08-09T08:19:40.228Z,25.11
2022-08-09T08:20:42.913Z,25.14
2022-08-09T08:21:40.255Z,25.16
2022-08-09T08:22:40.275Z,25.16
2022-08-09T08:23:40.929Z,25.17
2022-08-09T08:24:41.642Z,25.19
2022-08-09T08:25:46.152Z,25.20
2022-08-09T08:26:41.906Z,25.24
2022-08-09T08:27:41.070Z,25.23
2022-08-09T08:28:40.408Z,25.26
2022-08-09T08:29:48.677Z,25.27
2022-08-09T08:30:40.414Z,25.26
2022-08-09T08:32:04.274Z,25.29
2022-08-09T08:32:52.837Z,25.30
2022-08-09T08:33:52.245Z,25.31
2022-08-09T08:34:40.492Z,25.34
2022-08-09T08:35:58.894Z,25.35
2022-08-09T08:36:40.534Z,25.38
2022-08-09T08:37:40.735Z,25.38
2022-08-09T08:38:40.600Z,25.39
2022-08-09T08:39:43.605Z,25.41
2022-08-09T08:40:40.591Z,25.42
2022-08-09T08:41:51.134Z,25.44
2022-08-09T08:42:40.609Z,25.44
2022-08-09T08:43:40.633Z,25.46
2022-08-09T08:44:40.626Z,25.48
2022-08-09T08:45:50.758Z,25.49
2022-08-09T08:46:59.734Z,25.51
2022-08-09T08:47:42.893Z,25.53
2022-08-09T08:48:40.679Z,25.54
2022-08-09T08:49:48.390Z,25.54
2022-08-09T08:50:40.762Z,25.56
2022-08-09T08:51:41.881Z,25.59
2022-08-09T08:52:59.431Z,25.61
2022-08-09T08:54:03.900Z,25.60
2022-08-09T08:54:40.824Z,25.64
2022-08-09T08:55:40.788Z,25.64
2022-08-09T08:56:41.188Z,25.67
2022-08-09T08:57:40.853Z,25.67
2022-08-09T08:58:46.473Z,25.69
2022-08-09T08:59:46.732Z,25.69
2022-08-09T09:00:40.894Z,25.72
2022-08-09T09:01:52.415Z,25.74
2022-08-09T09:02:41.363Z,25.74
2022-08-09T09:03:40.973Z,25.76
2022-08-09T09:04:47.883Z,25.76
2022-08-09T09:05:59.066Z,25.79
2022-08-09T09:06:40.994Z,25.79
2022-08-09T09:07:42.432Z,25.82
2022-08-09T09:08:42.437Z,25.83
2022-08-09T09:10:02.139Z,25.85
2022-08-09T09:10:41.036Z,25.85
2022-08-09T09:11:41.021Z,25.89
2022-08-09T09:12:41.037Z,25.89
2022-08-09T09:13:55.107Z,25.91
2022-08-09T09:14:41.100Z,25.93
2022-08-09T09:15:41.107Z,25.93
2022-08-09T09:16:41.112Z,25.94
2022-08-09T09:17:49.311Z,25.97
2022-08-09T09:18:45.849Z,25.98
2022-08-09T09:19:41.994Z,26.01
2022-08-09T09:20:41.195Z,26.04
2022-08-09T09:21:43.029Z,26.06
2022-08-09T09:22:41.219Z,26.08
2022-08-09T09:23:41.204Z,26.11
2022-08-09T09:24:43.609Z,26.16
2022-08-09T09:26:01.083Z,26.17
2022-08-09T09:26:43.637Z,26.20
2022-08-09T09:28:06.837Z,26.21
2022-08-09T09:29:03.472Z,26.23
2022-08-09T09:30:11.968Z,26.28
2022-08-09T09:30:41.795Z,26.28
2022-08-09T09:32:04.703Z,26.29
2022-08-09T09:32:41.376Z,26.31
2022-08-09T09:33:44.332Z,26.32
2022-08-09T09:34:41.403Z,26.32
2022-08-09T09:35:44.994Z,26.32
2022-08-09T09:36:46.933Z,26.32
2022-08-09T09:37:41.435Z,26.34
2022-08-09T09:38:41.473Z,26.35
2022-08-09T09:39:54.949Z,26.36
2022-08-09T09:40:41.496Z,26.38
2022-08-09T09:41:49.635Z,26.38
2022-08-09T09:42:45.995Z,26.38
2022-08-09T09:44:10.641Z,26.39
2022-08-09T09:44:41.593Z,26.42
2022-08-09T09:45:56.729Z,26.42
2022-08-09T09:46:51.812Z,26.42
2022-08-09T09:47:56.236Z,26.44
2022-08-09T09:48:41.661Z,26.44
2022-08-09T09:50:13.646Z,26.46
2022-08-09T09:50:49.322Z,26.47
2022-08-09T09:51:41.685Z,26.49
2022-08-09T09:52:41.734Z,26.50
2022-08-09T09:53:57.359Z,26.50
2022-08-09T09:54:41.766Z,26.53
2022-08-09T09:55:41.790Z,26.53
2022-08-09T09:58:01.633Z,26.54
2022-08-09T09:58:02.833Z,26.54
2022-08-09T09:58:41.845Z,26.54
2022-08-09T09:59:41.889Z,26.57
2022-08-09T10:00:41.896Z,26.56
2022-08-09T10:01:41.915Z,26.57
2022-08-09T10:02:41.933Z,26.59
2022-08-09T10:03:42.897Z,26.61
2022-08-09T10:04:41.939Z,26.60
2022-08-09T10:06:03.563Z,26.61
2022-08-09T10:06:42.891Z,26.64
2022-08-09T10:08:11.019Z,26.64
2022-08-09T10:08:54.320Z,26.65
2022-08-09T10:09:45.887Z,26.66
2022-08-09T10:10:42.013Z,26.68
2022-08-09T10:11:59.037Z,26.68
2022-08-09T10:12:43.783Z,26.69
2022-08-09T10:13:43.261Z,26.71
2022-08-09T10:14:47.992Z,26.71
2022-08-09T10:16:08.928Z,26.72
2022-08-09T10:16:58.025Z,26.71
2022-08-09T10:17:56.582Z,26.72
2022-08-09T10:18:42.139Z,26.73
2022-08-09T10:19:42.179Z,26.75
2022-08-09T10:20:44.749Z,26.76
2022-08-09T10:21:42.182Z,26.76
2022-08-09T10:22:42.416Z,26.78
2022-08-09T10:23:42.227Z,26.79
2022-08-09T10:24:42.254Z,26.79
2022-08-09T10:26:04.252Z,26.79
2022-08-09T10:26:42.292Z,26.83
2022-08-09T10:27:45.384Z,26.83
2022-08-09T10:28:48.637Z,26.83
2022-08-09T10:30:43.753Z,26.84
2022-08-09T10:32:11.880Z,26.86
2022-08-09T10:32:43.191Z,26.88
2022-08-09T10:34:10.318Z,26.88
2022-08-09T10:34:42.416Z,26.88
2022-08-09T10:35:42.438Z,26.91
2022-08-09T10:36:42.468Z,26.91
2022-08-09T10:37:42.422Z,26.93
2022-08-09T10:38:56.158Z,26.93
2022-08-09T10:39:49.231Z,26.93
2022-08-09T10:40:44.745Z,26.94
2022-08-09T10:41:42.522Z,26.94
2022-08-09T10:42:42.540Z,26.96
2022-08-09T10:43:46.919Z,26.97
2022-08-09T10:44:42.560Z,26.97
2022-08-09T10:45:49.437Z,26.97
2022-08-09T10:46:54.758Z,27.01
2022-08-09T10:48:17.023Z,26.98
2022-08-09T10:48:42.626Z,27.01
2022-08-09T10:49:51.524Z,27.02
2022-08-09T10:50:42.650Z,27.01
2022-08-09T10:51:42.655Z,27.03
2022-08-09T10:52:44.771Z,27.03
2022-08-09T10:53:46.886Z,27.05
2022-08-09T10:54:42.705Z,27.06
2022-08-09T10:55:55.045Z,27.06
2022-08-09T10:56:42.751Z,27.08
2022-08-09T10:57:42.776Z,27.08
2022-08-09T10:58:42.989Z,27.11
2022-08-09T10:59:43.065Z,27.09
2022-08-09T11:01:10.827Z,27.11
2022-08-09T11:03:10.914Z,27.12
2022-08-09T11:03:15.188Z,27.12
2022-08-09T11:03:51.526Z,27.12
2022-08-09T11:04:55.600Z,27.13
2022-08-09T11:06:00.458Z,27.13
2022-08-09T11:06:44.764Z,27.13
2022-08-09T11:07:57.316Z,27.15
2022-08-09T11:08:47.135Z,27.16
2022-08-09T11:09:47.995Z,27.16
2022-08-09T11:10:47.195Z,27.18
2022-08-09T11:11:43.654Z,27.18
2022-08-09T11:12:43.049Z,27.20
2022-08-09T11:13:50.873Z,27.21
2022-08-09T11:14:44.046Z,27.21
2022-08-09T11:15:50.839Z,27.23
2022-08-09T11:16:43.127Z,27.24
2022-08-09T11:17:43.115Z,27.24
2022-08-09T11:18:43.135Z,27.24
2022-08-09T11:20:11.837Z,27.25
2022-08-09T11:20:43.316Z,27.25
2022-08-09T11:21:43.185Z,27.27
2022-08-09T11:22:43.214Z,27.27
2022-08-09T11:23:45.255Z,27.30
2022-08-09T11:24:43.216Z,27.28
2022-08-09T11:25:47.235Z,27.30
2022-08-09T11:26:47.425Z,27.31
2022-08-09T11:28:04.630Z,27.33
2022-08-09T11:28:55.990Z,27.31
2022-08-09T11:30:05.842Z,27.34
2022-08-09T11:30:48.166Z,27.33
2022-08-09T11:31:48.794Z,27.34
2022-08-09T11:32:43.351Z,27.35
2022-08-09T11:33:43.359Z,27.35
2022-08-09T11:34:43.391Z,27.35
2022-08-09T11:35:49.210Z,27.38
2022-08-09T11:36:43.381Z,27.38
2022-08-09T11:37:43.409Z,27.39
2022-08-09T11:38:43.424Z,27.40
2022-08-09T11:39:43.533Z,27.40
2022-08-09T11:40:43.470Z,27.42
2022-08-09T11:41:43.494Z,27.42
2022-08-09T11:42:43.520Z,27.43
2022-08-09T11:43:43.526Z,27.43
2022-08-09T11:44:43.552Z,27.45
2022-08-09T11:45:43.692Z,27.45
2022-08-09T11:46:43.566Z,27.45
2022-08-09T11:47:43.592Z,27.45
2022-08-09T11:48:43.598Z,27.46
2022-08-09T11:50:54.083Z,27.48
2022-08-09T11:50:55.163Z,27.48
2022-08-09T11:52:56.661Z,27.50
2022-08-09T11:53:03.179Z,27.49
2022-08-09T11:54:00.722Z,27.48
2022-08-09T11:54:43.886Z,27.50
2022-08-09T11:55:52.888Z,27.52
2022-08-09T11:56:48.284Z,27.52
2022-08-09T11:57:59.724Z,27.52
2022-08-09T11:58:50.017Z,27.53
2022-08-09T11:59:43.788Z,27.53
2022-08-09T12:00:43.811Z,27.55
2022-08-09T12:02:01.143Z,27.58
2022-08-09T12:02:43.952Z,27.59
2022-08-09T12:03:56.652Z,27.59
2022-08-09T12:04:43.911Z,27.59
2022-08-09T12:05:47.156Z,27.61
2022-08-09T12:06:53.045Z,27.59
2022-08-09T12:07:43.907Z,27.61
2022-08-09T12:08:43.934Z,27.61
2022-08-09T12:09:50.282Z,27.63
2022-08-09T12:10:43.973Z,27.63
2022-08-09T12:12:02.576Z,27.63
2022-08-09T12:12:44.012Z,27.63
2022-08-09T12:14:10.832Z,27.63
2022-08-09T12:15:07.589Z,27.65
2022-08-09T12:15:50.249Z,27.66
2022-08-09T12:16:44.080Z,27.65
2022-08-09T12:17:48.923Z,27.61
2022-08-09T12:18:44.130Z,27.58
2022-08-09T12:19:44.151Z,27.53
2022-08-09T12:20:44.161Z,27.52
2022-08-09T12:21:50.758Z,27.50
2022-08-09T12:22:44.193Z,27.48
2022-08-09T12:23:56.130Z,27.48
2022-08-09T12:24:44.226Z,27.50
2022-08-09T12:25:49.433Z,27.55
2022-08-09T12:26:44.921Z,27.58
2022-08-09T12:29:09.977Z,27.63
2022-08-09T12:29:15.614Z,27.59
2022-08-09T12:29:54.029Z,27.62
2022-08-09T12:30:44.348Z,27.63
2022-08-09T12:32:02.278Z,27.66
2022-08-09T12:32:44.482Z,27.66
2022-08-09T12:33:58.381Z,27.68
2022-08-09T12:34:44.402Z,27.68
2022-08-09T12:35:44.388Z,27.69
2022-08-09T12:36:44.383Z,27.69
2022-08-09T12:37:50.077Z,27.72
2022-08-09T12:38:44.427Z,27.72
2022-08-09T12:39:44.497Z,27.69
2022-08-09T12:40:44.468Z,27.65
2022-08-09T12:41:44.498Z,27.62
2022-08-09T12:42:44.531Z,27.62
2022-08-09T12:44:06.945Z,27.59
2022-08-09T12:44:52.464Z,27.55
2022-08-09T12:45:44.597Z,27.53
2022-08-09T12:46:44.615Z,27.52
2022-08-09T12:47:50.244Z,27.52
2022-08-09T12:48:44.636Z,27.50
2022-08-09T12:49:51.243Z,27.49
2022-08-09T12:50:44.695Z,27.49
2022-08-09T12:52:00.688Z,27.49
2022-08-09T12:53:08.199Z,27.46
2022-08-09T12:53:52.797Z,27.46
2022-08-09T12:54:44.778Z,27.45
2022-08-09T12:56:13.880Z,27.45
2022-08-09T12:56:48.395Z,27.45